Time;durP1;ratioP1;P1;durP2;ratioP2;P2;SDS_P1;SDS_P2;PMS_P1;PMS_P2;Temp;Humidity;BMP_temperature;BMP_pressure;BME280_temperature;BME280_humidity;BME280_pressure;Samples;Min_cycle;Max_cycle;Signal;HPM_P1;HPM_P2
2021/08/13 00:01:35;;;;;;;2.47;2.35;;;16.40;99.90;;;;;;5095021;28;20039;-66
2021/08/13 00:04:01;;;;;;;3.58;2.63;;;16.40;99.90;;;;;;5098532;27;20466;-67
2021/08/13 00:06:26;;;;;;;2.47;2.28;;;16.40;99.90;;;;;;5097977;28;20035;-66
2021/08/13 00:08:52;;;;;;;3.60;2.55;;;16.40;99.90;;;;;;5098301;28;20124;-66
2021/08/13 00:11:18;;;;;;;6.18;5.57;;;16.30;99.90;;;;;;5094385;28;20035;-66
2021/08/13 00:13:44;;;;;;;6.13;5.30;;;16.30;99.90;;;;;;5095498;28;20047;-67
2021/08/13 00:16:10;;;;;;;4.57;4.18;;;16.20;99.90;;;;;;5098081;28;20040;-66
2021/08/13 00:18:35;;;;;;;3.03;2.83;;;16.20;99.90;;;;;;5096758;28;20405;-66
2021/08/13 00:21:01;;;;;;;9.00;4.05;;;16.20;99.90;;;;;;5096883;28;20036;-67
2021/08/13 00:23:27;;;;;;;7.25;6.47;;;16.20;99.90;;;;;;5096842;28;20064;-67
2021/08/13 00:25:52;;;;;;;5.13;4.60;;;16.20;99.90;;;;;;5095896;28;20055;-67
2021/08/13 00:28:18;;;;;;;6.10;4.72;;;16.10;99.90;;;;;;5093418;28;20040;-67
2021/08/13 00:30:44;;;;;;;10.25;7.40;;;16.10;99.90;;;;;;5097228;28;20061;-67
2021/08/13 00:33:10;;;;;;;8.90;8.07;;;16.10;99.90;;;;;;5094232;28;20055;-66
2021/08/13 00:35:35;;;;;;;8.77;7.85;;;16.10;99.90;;;;;;5093919;28;20043;-66
2021/08/13 00:38:01;;;;;;;11.02;9.93;;;16.10;99.90;;;;;;5094703;28;20039;-66
2021/08/13 00:40:27;;;;;;;12.85;11.57;;;16.10;99.90;;;;;;5096026;28;20107;-66
2021/08/13 00:42:52;;;;;;;9.77;8.88;;;16.10;99.90;;;;;;5095285;28;20040;-66
2021/08/13 00:45:18;;;;;;;5.88;5.32;;;16.10;99.90;;;;;;5093464;28;20048;-66
2021/08/13 00:47:44;;;;;;;4.75;4.35;;;16.10;99.90;;;;;;5094182;28;20028;-66
2021/08/13 00:50:11;;;;;;;10.27;4.82;;;16.00;99.90;;;;;;5096058;27;20054;-66
2021/08/13 00:52:38;;;;;;;6.00;5.47;;;16.00;99.90;;;;;;5094031;28;20059;-66
2021/08/13 00:55:05;;;;;;;6.07;5.57;;;15.90;99.90;;;;;;5096075;27;20035;-66
2021/08/13 00:57:31;;;;;;;4.70;4.30;;;15.90;99.90;;;;;;5097019;27;20035;-67
2021/08/13 00:59:56;;;;;;;7.03;6.15;;;15.90;99.90;;;;;;5098972;27;20035;-66
2021/08/13 01:02:24;;;;;;;8.25;7.20;;;15.90;99.90;;;;;;5094655;28;20036;-66
2021/08/13 01:04:50;;;;;;;10.65;7.15;;;15.90;99.90;;;;;;5094147;28;20036;-66
2021/08/13 01:07:16;;;;;;;7.53;6.82;;;15.90;99.90;;;;;;5095458;28;20489;-67
2021/08/13 01:09:42;;;;;;;6.72;6.03;;;15.90;99.90;;;;;;5094206;28;20077;-66
2021/08/13 01:12:41;;;;;;;8.68;7.20;;;15.90;99.90;;;;;;5096238;28;20069;-66
2021/08/13 01:15:12;;;;;;;4.53;4.20;;;15.90;99.90;;;;;;5096078;28;20032;-66
2021/08/13 01:17:58;;;;;;;6.35;5.55;;;15.80;99.90;;;;;;5097545;28;20036;-66
2021/08/13 01:21:01;;;;;;;11.38;10.27;;;15.90;99.90;;;;;;5092972;28;20032;-66
2021/08/13 01:23:46;;;;;;;9.00;8.10;;;15.90;99.90;;;;;;5096535;28;20074;-66
2021/08/13 01:26:13;;;;;;;5.35;4.95;;;15.90;99.90;;;;;;5093794;28;20048;-66
2021/08/13 01:28:54;;;;;;;7.78;6.22;;;15.90;99.90;;;;;;5093139;27;20071;-66
2021/08/13 01:31:23;;;;;;;10.50;9.57;;;15.90;99.90;;;;;;5095274;27;20044;-66
2021/08/13 01:33:58;;;;;;;10.32;9.43;;;15.90;99.90;;;;;;5093912;28;20047;-66
2021/08/13 01:36:27;;;;;;;9.02;8.20;;;15.90;99.90;;;;;;5094557;28;20118;-66
2021/08/13 01:38:55;;;;;;;13.77;9.48;;;15.90;99.90;;;;;;5095427;28;20032;-66
2021/08/13 01:41:23;;;;;;;9.55;7.85;;;15.90;99.90;;;;;;5094083;28;20036;-66
2021/08/13 01:43:50;;;;;;;8.48;7.68;;;15.90;99.90;;;;;;5096479;28;20079;-66
2021/08/13 01:46:16;;;;;;;7.00;6.40;;;15.90;99.90;;;;;;5095522;28;20054;-66
2021/08/13 01:48:42;;;;;;;10.30;8.43;;;15.80;99.90;;;;;;5095593;28;20040;-66
2021/08/13 01:51:14;;;;;;;8.23;7.53;;;15.70;99.90;;;;;;5093632;28;20078;-66
2021/08/13 01:53:41;;;;;;;8.50;7.90;;;15.70;99.90;;;;;;5094362;28;20362;-66
2021/08/13 01:56:07;;;;;;;8.02;7.20;;;15.60;99.90;;;;;;5093138;28;20040;-66
2021/08/13 01:58:33;;;;;;;6.72;6.18;;;15.50;99.90;;;;;;5092505;28;20028;-66
2021/08/13 02:00:59;;;;;;;10.32;9.13;;;15.40;99.90;;;;;;5096106;28;20035;-66
2021/08/13 02:03:25;;;;;;;11.80;7.53;;;15.40;99.90;;;;;;5094149;28;20047;-66
2021/08/13 02:05:53;;;;;;;8.55;7.60;;;15.30;99.90;;;;;;5093207;28;20044;-66
2021/08/13 02:08:20;;;;;;;8.23;7.53;;;15.30;99.90;;;;;;5094419;28;20133;-67
2021/08/13 02:10:48;;;;;;;9.45;8.55;;;15.30;99.90;;;;;;5092760;28;20039;-66
2021/08/13 02:13:14;;;;;;;10.48;8.27;;;15.30;99.90;;;;;;5096939;28;20043;-66
2021/08/13 02:15:46;;;;;;;10.07;9.18;;;15.30;99.90;;;;;;5092660;28;20039;-66
2021/08/13 02:18:19;;;;;;;5.88;5.38;;;15.30;99.90;;;;;;5094756;28;20118;-66
2021/08/13 02:20:48;;;;;;;6.53;5.93;;;15.30;99.90;;;;;;5095680;28;20036;-66
2021/08/13 02:23:16;;;;;;;7.78;6.10;;;15.30;99.90;;;;;;5092955;28;20130;-66
2021/08/13 02:25:42;;;;;;;7.75;6.40;;;15.30;99.90;;;;;;5094789;28;20083;-66
2021/08/13 02:28:08;;;;;;;8.45;6.80;;;15.40;99.90;;;;;;5101574;28;20067;-66
2021/08/13 02:30:36;;;;;;;8.93;8.13;;;15.40;99.90;;;;;;5102065;28;20032;-66
2021/08/13 02:33:02;;;;;;;10.05;9.13;;;15.40;99.90;;;;;;5094979;28;20035;-66
2021/08/13 02:35:30;;;;;;;9.00;8.13;;;15.40;99.90;;;;;;5098396;28;20040;-66
2021/08/13 02:38:10;;;;;;;8.65;7.72;;;15.40;99.90;;;;;;5103701;28;20042;-66
2021/08/13 02:40:51;;;;;;;9.70;7.65;;;15.40;99.90;;;;;;5103110;28;20494;-66
2021/08/13 02:43:27;;;;;;;8.88;8.00;;;15.50;99.90;;;;;;5100368;28;20100;-66
2021/08/13 02:45:56;;;;;;;10.38;5.57;;;15.50;99.90;;;;;;5105354;28;20111;-66
2021/08/13 02:48:22;;;;;;;7.75;6.95;;;15.50;99.90;;;;;;5105767;27;20039;-66
2021/08/13 02:50:50;;;;;;;6.97;6.32;;;15.50;99.90;;;;;;5105699;28;20056;-66
2021/08/13 02:53:21;;;;;;;8.63;7.82;;;15.50;99.90;;;;;;5101940;28;20085;-66
2021/08/13 02:55:53;;;;;;;6.30;5.70;;;15.50;99.90;;;;;;5102368;28;20036;-66
2021/08/13 02:58:23;;;;;;;6.50;6.00;;;15.50;99.90;;;;;;5107800;27;20039;-67
2021/08/13 03:00:52;;;;;;;6.78;6.18;;;15.50;99.90;;;;;;5111070;28;20064;-66
2021/08/13 03:03:19;;;;;;;7.60;4.97;;;15.50;99.90;;;;;;5105337;28;20122;-66
2021/08/13 03:05:49;;;;;;;8.50;7.57;;;15.40;99.90;;;;;;5111387;28;20538;-66
2021/08/13 03:08:19;;;;;;;8.68;7.88;;;15.40;99.90;;;;;;5102011;28;20040;-66
2021/08/13 03:10:46;;;;;;;11.57;8.02;;;15.40;99.90;;;;;;5107044;28;20040;-66
2021/08/13 03:13:15;;;;;;;7.93;7.22;;;15.40;99.90;;;;;;5109787;28;20047;-66
2021/08/13 03:15:42;;;;;;;5.30;4.80;;;15.30;99.90;;;;;;5105069;28;20490;-66
2021/08/13 03:18:08;;;;;;;5.43;4.93;;;15.30;99.90;;;;;;5103364;28;20032;-66
2021/08/13 03:20:35;;;;;;;12.60;6.70;;;15.30;99.90;;;;;;5108556;28;20094;-66
2021/08/13 03:23:01;;;;;;;10.88;6.63;;;15.20;99.90;;;;;;5104045;28;20055;-66
2021/08/13 03:25:27;;;;;;;7.72;5.30;;;15.20;99.90;;;;;;5108543;27;20093;-66
2021/08/13 03:27:54;;;;;;;4.18;3.88;;;15.10;99.90;;;;;;5105765;27;20039;-66
2021/08/13 03:30:20;;;;;;;7.57;5.45;;;15.10;99.90;;;;;;5106668;28;20484;-66
2021/08/13 03:32:48;;;;;;;6.95;4.95;;;15.10;99.90;;;;;;5103152;28;20081;-66
2021/08/13 03:35:15;;;;;;;7.03;6.25;;;15.10;99.90;;;;;;5104972;28;20062;-66
2021/08/13 03:37:41;;;;;;;8.68;7.43;;;15.10;99.90;;;;;;5104193;28;20123;-66
2021/08/13 03:40:08;;;;;;;9.00;8.10;;;15.00;99.90;;;;;;5102955;27;20039;-66
2021/08/13 03:42:33;;;;;;;10.10;8.45;;;15.00;99.90;;;;;;5105246;28;20040;-66
2021/08/13 03:44:59;;;;;;;9.07;7.85;;;15.00;99.90;;;;;;5108096;28;20489;-66
2021/08/13 03:47:25;;;;;;;7.75;6.57;;;15.00;99.90;;;;;;5105501;28;20035;-66
2021/08/13 03:49:51;;;;;;;6.85;4.43;;;14.90;99.90;;;;;;5107009;28;20039;-66
2021/08/13 03:52:16;;;;;;;7.88;6.13;;;14.90;99.90;;;;;;5104428;28;20390;-66
2021/08/13 03:54:43;;;;;;;6.47;4.93;;;14.90;99.90;;;;;;5102858;28;20059;-66
2021/08/13 03:57:09;;;;;;;8.05;6.15;;;14.90;99.90;;;;;;5103955;28;20516;-66
2021/08/13 03:59:35;;;;;;;4.15;3.75;;;14.90;99.90;;;;;;5104877;28;20111;-66
2021/08/13 04:02:00;;;;;;;7.10;5.00;;;14.80;99.90;;;;;;5102062;28;20126;-66
2021/08/13 04:04:26;;;;;;;8.68;5.55;;;14.80;99.90;;;;;;5102956;28;20044;-66
2021/08/13 04:06:52;;;;;;;9.52;7.05;;;14.80;99.90;;;;;;5100959;28;20051;-66
2021/08/13 04:09:18;;;;;;;3.28;2.88;;;14.80;99.90;;;;;;5105209;27;20115;-66
2021/08/13 04:11:44;;;;;;;3.53;3.22;;;14.80;99.90;;;;;;5104674;28;20492;-66
2021/08/13 04:14:10;;;;;;;4.35;3.00;;;14.70;99.90;;;;;;5103883;28;20452;-67
2021/08/13 04:16:35;;;;;;;3.45;3.15;;;14.80;99.90;;;;;;5102449;28;20122;-67
2021/08/13 04:19:01;;;;;;;4.80;3.28;;;14.70;99.90;;;;;;5100937;28;20039;-66
2021/08/13 04:21:27;;;;;;;8.32;5.18;;;14.70;99.90;;;;;;5105289;28;20402;-66
2021/08/13 04:23:53;;;;;;;11.57;7.47;;;14.70;99.90;;;;;;5099823;28;20049;-66
2021/08/13 04:26:18;;;;;;;10.88;9.40;;;14.70;99.90;;;;;;5100441;28;20040;-67
2021/08/13 04:28:44;;;;;;;8.18;7.38;;;14.70;99.90;;;;;;5104178;28;20040;-66
2021/08/13 04:31:11;;;;;;;8.13;7.43;;;14.70;99.90;;;;;;5105535;28;20040;-66
2021/08/13 04:33:37;;;;;;;9.15;8.25;;;14.60;99.90;;;;;;5099888;27;20039;-66
2021/08/13 04:36:04;;;;;;;7.47;4.65;;;14.70;99.90;;;;;;5102329;28;20455;-66
2021/08/13 04:38:30;;;;;;;5.88;4.97;;;14.70;99.90;;;;;;5102464;28;20032;-66
2021/08/13 04:40:56;;;;;;;11.50;10.13;;;14.70;99.90;;;;;;5101482;28;20088;-66
2021/08/13 04:43:22;;;;;;;14.40;12.88;;;14.70;99.90;;;;;;5104290;28;20044;-66
2021/08/13 04:45:48;;;;;;;8.13;7.32;;;14.70;99.90;;;;;;5108595;28;20047;-66
2021/08/13 04:48:14;;;;;;;10.32;6.50;;;14.80;99.90;;;;;;5100786;28;20402;-66
2021/08/13 04:50:47;;;;;;;6.20;5.57;;;14.80;99.90;;;;;;5102198;28;20036;-66
2021/08/13 04:53:16;;;;;;;12.57;7.28;;;14.90;99.90;;;;;;5104803;27;20509;-66
2021/08/13 04:55:42;;;;;;;8.88;6.30;;;15.00;99.90;;;;;;5106472;28;20076;-66
2021/08/13 04:58:07;;;;;;;9.70;7.60;;;15.00;99.90;;;;;;5107740;28;20036;-67
2021/08/13 05:00:36;;;;;;;10.43;8.82;;;15.10;99.90;;;;;;5103480;27;20052;-66
2021/08/13 05:03:04;;;;;;;11.23;10.23;;;15.20;99.90;;;;;;5101156;28;20196;-66
2021/08/13 05:05:38;;;;;;;16.42;14.75;;;15.30;99.90;;;;;;5102083;28;20036;-67
2021/08/13 05:08:05;;;;;;;13.95;12.55;;;15.40;99.90;;;;;;5102952;28;20040;-66
2021/08/13 05:10:30;;;;;;;19.38;15.57;;;15.50;99.90;;;;;;5099682;28;20048;-66
2021/08/13 05:12:56;;;;;;;14.02;11.15;;;15.70;99.90;;;;;;5093646;28;21012;-67
2021/08/13 05:15:22;;;;;;;12.70;10.70;;;15.90;99.90;;;;;;5095691;28;20036;-67
2021/08/13 05:17:47;;;;;;;12.85;11.27;;;16.20;99.90;;;;;;5097032;28;20829;-67
2021/08/13 05:20:13;;;;;;;15.38;12.05;;;16.70;99.90;;;;;;5095606;28;20531;-67
2021/08/13 05:22:39;;;;;;;19.92;14.40;;;17.30;99.90;;;;;;5094546;27;20123;-67
2021/08/13 05:25:11;;;;;;;17.00;13.45;;;17.80;99.90;;;;;;5095989;28;20083;-67
2021/08/13 05:27:39;;;;;;;16.38;12.88;;;18.50;99.90;;;;;;5094114;28;20067;-67
2021/08/13 05:30:25;;;;;;;14.75;11.43;;;19.50;99.90;;;;;;5092643;28;20036;-67
2021/08/13 05:32:52;;;;;;;13.15;11.85;;;20.40;99.90;;;;;;5093673;28;20040;-67
2021/08/13 05:35:18;;;;;;;14.05;12.68;;;20.70;99.90;;;;;;5097585;28;20043;-67
2021/08/13 05:37:44;;;;;;;13.35;12.00;;;21.10;99.90;;;;;;5094347;28;20406;-67
2021/08/13 05:40:10;;;;;;;12.88;11.63;;;22.00;99.90;;;;;;5096269;28;20119;-67
2021/08/13 05:42:36;;;;;;;13.65;12.25;;;22.70;99.90;;;;;;5090524;28;20471;-67
2021/08/13 05:45:03;;;;;;;13.38;12.13;;;23.30;99.90;;;;;;5096584;28;20032;-67
2021/08/13 05:47:29;;;;;;;13.45;12.15;;;23.40;99.90;;;;;;5095646;28;20149;-67
2021/08/13 05:50:09;;;;;;;14.70;12.95;;;23.70;99.90;;;;;;5095431;28;20036;-67
2021/08/13 05:52:35;;;;;;;15.02;13.38;;;23.90;99.90;;;;;;5096259;27;20039;-67
2021/08/13 05:55:00;;;;;;;15.65;12.68;;;24.10;99.90;;;;;;5097548;28;20092;-67
2021/08/13 05:57:26;;;;;;;16.13;13.80;;;24.60;99.90;;;;;;5093654;28;20528;-67
2021/08/13 05:59:52;;;;;;;15.95;13.90;;;25.20;99.90;;;;;;5093790;28;20028;-67
2021/08/13 06:02:18;;;;;;;14.48;13.02;;;26.00;99.90;;;;;;5093001;28;20128;-67
2021/08/13 06:04:44;;;;;;;13.90;12.60;;;26.60;98.20;;;;;;5096051;28;20036;-67
2021/08/13 06:07:09;;;;;;;15.55;13.02;;;27.00;96.60;;;;;;5094167;28;20050;-67
2021/08/13 06:09:36;;;;;;;14.95;13.10;;;27.10;95.90;;;;;;5097158;28;20054;-67
2021/08/13 06:12:01;;;;;;;15.10;13.70;;;26.90;96.10;;;;;;5095954;28;20036;-67
2021/08/13 06:14:27;;;;;;;14.77;13.35;;;27.00;96.20;;;;;;5098531;28;20529;-67
2021/08/13 06:16:53;;;;;;;15.75;14.13;;;27.00;96.40;;;;;;5095163;28;21348;-67
2021/08/13 06:19:18;;;;;;;15.60;13.60;;;26.90;96.40;;;;;;5094232;28;20066;-67
2021/08/13 06:21:44;;;;;;;16.35;14.85;;;26.60;96.40;;;;;;5094505;28;20081;-67
2021/08/13 06:24:10;;;;;;;15.95;14.35;;;26.20;97.00;;;;;;5100333;28;20142;-67
2021/08/13 06:26:35;;;;;;;17.45;15.75;;;25.60;98.00;;;;;;5100335;28;20036;-67
2021/08/13 06:29:01;;;;;;;18.90;15.88;;;25.30;99.40;;;;;;5097478;27;20039;-67
2021/08/13 06:31:27;;;;;;;16.00;14.43;;;25.00;99.90;;;;;;5094633;28;20845;-67
2021/08/13 06:33:53;;;;;;;18.45;16.45;;;24.80;99.90;;;;;;5096497;28;20083;-67
2021/08/13 06:36:19;;;;;;;18.83;16.95;;;24.60;99.90;;;;;;5099388;28;20127;-67
2021/08/13 06:38:45;;;;;;;19.67;17.73;;;24.30;99.90;;;;;;5098259;28;20126;-67
2021/08/13 06:41:10;;;;;;;20.73;18.60;;;24.00;99.90;;;;;;5097296;28;20047;-67
2021/08/13 06:43:36;;;;;;;25.42;19.17;;;23.80;99.90;;;;;;5096987;27;20469;-67
2021/08/13 06:46:02;;;;;;;20.40;18.33;;;23.50;99.90;;;;;;5101801;28;20036;-67
2021/08/13 06:48:28;;;;;;;21.23;18.13;;;23.40;99.90;;;;;;5098101;27;20138;-67
2021/08/13 06:50:54;;;;;;;20.80;18.63;;;23.30;99.90;;;;;;5099934;27;20623;-67
2021/08/13 06:53:19;;;;;;;20.63;18.63;;;23.20;99.90;;;;;;5098135;28;20485;-67
2021/08/13 06:55:45;;;;;;;22.42;19.10;;;23.20;99.90;;;;;;5098141;28;20540;-67
2021/08/13 06:58:11;;;;;;;19.65;17.70;;;23.10;99.90;;;;;;5096316;27;20043;-67
2021/08/13 07:00:37;;;;;;;21.42;19.25;;;23.10;99.90;;;;;;5098752;27;20036;-67
2021/08/13 07:03:04;;;;;;;19.05;17.15;;;22.90;99.90;;;;;;5098654;28;20166;-67
2021/08/13 07:05:29;;;;;;;18.65;16.77;;;22.90;99.90;;;;;;5098503;27;20067;-67
2021/08/13 07:07:55;;;;;;;19.75;17.75;;;22.80;99.90;;;;;;5093991;28;20078;-67
2021/08/13 07:10:21;;;;;;;17.75;15.95;;;22.70;99.90;;;;;;5095069;27;20137;-67
2021/08/13 07:12:47;;;;;;;17.73;16.02;;;22.80;99.90;;;;;;5098182;28;20380;-67
2021/08/13 07:15:14;;;;;;;18.33;16.45;;;22.70;99.90;;;;;;5097110;28;20040;-67
2021/08/13 07:17:40;;;;;;;18.00;16.05;;;22.80;99.90;;;;;;5098623;27;20470;-67
2021/08/13 07:20:07;;;;;;;19.40;16.17;;;22.70;99.90;;;;;;5097270;28;20035;-67
2021/08/13 07:22:33;;;;;;;19.83;16.70;;;22.60;99.90;;;;;;5099326;28;20036;-67
2021/08/13 07:24:59;;;;;;;17.90;16.02;;;22.60;99.90;;;;;;5101259;28;20043;-67
2021/08/13 07:27:27;;;;;;;17.23;15.50;;;22.60;99.90;;;;;;5096725;27;20028;-67
2021/08/13 07:29:53;;;;;;;15.93;14.32;;;22.50;99.90;;;;;;5094571;27;20123;-67
2021/08/13 07:32:18;;;;;;;17.83;15.68;;;22.50;99.90;;;;;;5095353;28;20093;-66
2021/08/13 07:34:44;;;;;;;16.88;14.75;;;22.40;99.90;;;;;;5096673;27;20035;-67
2021/08/13 07:37:10;;;;;;;16.73;14.70;;;22.30;99.90;;;;;;5097228;28;20036;-67
2021/08/13 07:39:36;;;;;;;18.02;14.93;;;22.30;99.90;;;;;;5100275;28;20042;-67
2021/08/13 07:42:01;;;;;;;16.48;14.70;;;22.20;99.90;;;;;;5097392;28;20156;-67
2021/08/13 07:44:27;;;;;;;15.98;13.57;;;22.20;99.90;;;;;;5097166;28;20527;-67
2021/08/13 07:46:53;;;;;;;17.33;15.65;;;22.10;99.90;;;;;;5098614;28;20397;-67
2021/08/13 07:49:18;;;;;;;14.80;13.40;;;22.00;99.90;;;;;;5098581;28;20469;-67
2021/08/13 07:51:44;;;;;;;18.42;14.57;;;22.00;99.90;;;;;;5095031;28;20040;-68
2021/08/13 07:54:10;;;;;;;14.35;12.80;;;22.00;99.90;;;;;;5098654;27;20051;-67
2021/08/13 07:56:35;;;;;;;14.48;13.07;;;22.20;99.90;;;;;;5098721;27;20142;-67
2021/08/13 07:59:01;;;;;;;15.30;13.73;;;22.00;99.90;;;;;;5097731;28;20070;-68
2021/08/13 08:01:27;;;;;;;14.65;13.10;;;22.00;99.90;;;;;;5096133;28;20050;-67
2021/08/13 08:03:52;;;;;;;14.73;13.32;;;22.00;99.90;;;;;;5097478;28;20040;-67
2021/08/13 08:06:19;;;;;;;15.60;13.93;;;22.00;99.90;;;;;;5097670;28;20050;-67
2021/08/13 08:08:45;;;;;;;16.50;13.38;;;21.90;99.90;;;;;;5095506;28;20032;-67
2021/08/13 08:11:11;;;;;;;15.85;14.35;;;21.90;99.90;;;;;;5094866;28;20040;-68
2021/08/13 08:13:36;;;;;;;14.05;12.75;;;21.80;99.90;;;;;;5097805;28;20061;-67
2021/08/13 08:16:03;;;;;;;12.95;11.60;;;21.80;99.90;;;;;;5097406;27;20547;-67
2021/08/13 08:18:30;;;;;;;14.68;13.15;;;21.80;99.90;;;;;;5098483;28;20089;-67
2021/08/13 08:20:55;;;;;;;14.35;12.50;;;21.80;99.90;;;;;;5097453;28;20043;-67
2021/08/13 08:23:21;;;;;;;13.40;11.93;;;21.80;99.90;;;;;;5096984;28;20048;-67
2021/08/13 08:25:47;;;;;;;14.93;11.93;;;21.80;99.90;;;;;;5096231;28;20049;-67
2021/08/13 08:28:12;;;;;;;14.52;11.55;;;21.90;99.90;;;;;;5097534;28;20051;-67
2021/08/13 08:30:38;;;;;;;14.02;11.10;;;21.90;99.90;;;;;;5099312;28;20114;-67
2021/08/13 08:33:04;;;;;;;12.82;11.63;;;22.00;99.90;;;;;;5096131;28;20122;-67
2021/08/13 08:35:29;;;;;;;16.50;11.15;;;22.10;99.90;;;;;;5091702;28;20500;-67
2021/08/13 08:37:59;;;;;;;10.85;9.85;;;22.10;99.90;;;;;;5096668;28;20093;-67
2021/08/13 08:40:27;;;;;;;14.32;11.07;;;22.20;99.90;;;;;;5096660;28;20042;-67
2021/08/13 08:42:56;;;;;;;9.82;8.93;;;22.20;99.90;;;;;;5094871;28;20051;-67
2021/08/13 08:45:25;;;;;;;10.80;8.98;;;22.20;99.90;;;;;;5095560;28;20116;-67
2021/08/13 08:47:53;;;;;;;11.10;8.80;;;22.20;99.90;;;;;;5096954;28;20531;-67
2021/08/13 08:50:21;;;;;;;9.30;8.13;;;22.40;99.90;;;;;;5095510;28;20040;-67
2021/08/13 08:52:48;;;;;;;9.30;7.50;;;22.50;99.90;;;;;;5096928;28;20055;-67
2021/08/13 08:55:14;;;;;;;9.45;8.27;;;22.50;99.90;;;;;;5096127;28;20036;-67
2021/08/13 08:57:40;;;;;;;10.98;7.68;;;22.60;99.90;;;;;;5096485;28;20042;-67
2021/08/13 09:00:09;;;;;;;7.72;6.60;;;22.50;99.90;;;;;;5098022;28;20482;-67
2021/08/13 09:02:35;;;;;;;9.90;7.40;;;22.50;99.90;;;;;;5095369;28;20039;-67
2021/08/13 09:05:01;;;;;;;8.70;7.78;;;22.50;99.90;;;;;;5095855;28;20032;-67
2021/08/13 09:07:27;;;;;;;12.82;9.13;;;22.50;99.90;;;;;;5092070;28;20032;-67
2021/08/13 09:09:54;;;;;;;9.77;7.63;;;22.50;99.90;;;;;;5095348;28;20030;-67
2021/08/13 09:12:21;;;;;;;11.45;7.40;;;22.30;99.90;;;;;;5094158;28;20035;-67
2021/08/13 09:14:47;;;;;;;8.70;7.07;;;22.30;99.90;;;;;;5093938;28;20168;-67
2021/08/13 09:17:13;;;;;;;8.35;6.55;;;22.30;99.90;;;;;;5093928;28;20068;-67
2021/08/13 09:19:44;;;;;;;10.55;7.78;;;22.30;99.90;;;;;;5095054;28;20089;-67
2021/08/13 09:22:13;;;;;;;8.50;6.03;;;22.40;99.90;;;;;;5096738;28;20184;-67
2021/08/13 09:24:40;;;;;;;11.68;6.82;;;22.30;99.90;;;;;;5096350;28;20046;-67
2021/08/13 09:27:15;;;;;;;7.80;6.05;;;22.30;99.90;;;;;;5096405;28;20031;-67
2021/08/13 09:30:01;;;;;;;8.40;6.07;;;22.20;99.90;;;;;;5099247;28;20052;-67
2021/08/13 09:32:27;;;;;;;10.32;6.00;;;22.20;99.90;;;;;;5093309;28;20409;-67
2021/08/13 09:34:52;;;;;;;7.28;5.72;;;22.10;99.90;;;;;;5098758;28;20039;-67
2021/08/13 09:37:18;;;;;;;7.07;5.10;;;22.10;99.90;;;;;;5095020;28;20044;-67
2021/08/13 09:39:51;;;;;;;11.10;5.50;;;22.00;99.90;;;;;;5093374;28;20036;-67
2021/08/13 09:42:17;;;;;;;6.10;4.88;;;22.00;99.90;;;;;;5130352;27;20381;-67
2021/08/13 09:44:43;;;;;;;6.97;4.15;;;21.90;99.90;;;;;;5098120;28;20032;-67
2021/08/13 09:47:11;;;;;;;7.85;4.50;;;21.90;99.90;;;;;;5093173;28;20395;-67
2021/08/13 09:49:39;;;;;;;7.50;4.13;;;21.90;99.90;;;;;;5095840;28;20860;-67
2021/08/13 09:52:16;;;;;;;8.68;4.53;;;22.00;99.90;;;;;;5096704;28;20126;-67
2021/08/13 09:54:42;;;;;;;6.13;3.42;;;22.00;99.90;;;;;;5094360;28;20487;-67
2021/08/13 09:57:10;;;;;;;7.10;3.65;;;21.90;99.90;;;;;;5092691;28;20453;-67
2021/08/13 09:59:37;;;;;;;6.90;3.25;;;21.80;99.90;;;;;;5094691;28;20036;-67
2021/08/13 10:02:14;;;;;;;9.27;3.75;;;21.80;99.90;;;;;;5095234;28;20490;-67
2021/08/13 10:04:41;;;;;;;9.77;3.42;;;21.80;99.90;;;;;;5094219;28;20492;-67
2021/08/13 10:07:07;;;;;;;9.10;3.55;;;21.80;99.90;;;;;;5093691;28;20123;-67
2021/08/13 10:09:32;;;;;;;6.82;3.17;;;21.80;99.90;;;;;;5097373;28;20533;-67
2021/08/13 10:12:06;;;;;;;7.25;3.05;;;21.80;99.90;;;;;;5094211;28;20035;-67
2021/08/13 10:14:36;;;;;;;6.82;2.95;;;21.90;99.90;;;;;;5096770;28;20070;-67
2021/08/13 10:17:13;;;;;;;6.90;3.30;;;21.90;99.90;;;;;;5095058;28;20150;-67
2021/08/13 10:19:44;;;;;;;5.45;2.97;;;21.90;99.90;;;;;;5093909;28;20041;-67
2021/08/13 10:22:10;;;;;;;9.98;3.65;;;21.90;99.90;;;;;;5093870;28;20105;-67
2021/08/13 10:24:38;;;;;;;7.15;3.70;;;21.90;99.90;;;;;;5092131;28;20983;-67
2021/08/13 10:27:05;;;;;;;7.10;3.78;;;22.00;99.90;;;;;;5095799;28;20032;-67
2021/08/13 10:29:31;;;;;;;6.03;3.70;;;22.10;99.90;;;;;;5094185;28;20039;-67
2021/08/13 10:31:57;;;;;;;11.82;3.63;;;22.40;99.90;;;;;;5092659;28;20036;-67
2021/08/13 10:34:22;;;;;;;10.48;3.80;;;22.60;99.90;;;;;;5091940;28;20139;-67
2021/08/13 10:36:50;;;;;;;7.30;4.20;;;22.60;99.90;;;;;;5098182;28;20047;-67
2021/08/13 10:39:20;;;;;;;4.68;3.85;;;22.60;99.90;;;;;;5092931;28;20035;-67
2021/08/13 10:41:49;;;;;;;13.45;3.60;;;22.70;99.90;;;;;;5096314;28;20504;-67
2021/08/13 10:44:18;;;;;;;18.00;4.68;;;22.90;99.90;;;;;;5091770;28;20036;-67
2021/08/13 10:46:46;;;;;;;9.75;3.53;;;23.10;99.90;;;;;;5094444;28;20508;-67
2021/08/13 10:49:18;;;;;;;6.63;3.63;;;22.90;99.90;;;;;;5095325;28;20098;-67
2021/08/13 10:51:44;;;;;;;8.30;3.50;;;22.90;99.90;;;;;;5094574;28;20036;-67
2021/08/13 10:54:14;;;;;;;8.07;3.75;;;22.80;99.90;;;;;;5094666;28;20559;-67
2021/08/13 10:56:45;;;;;;;7.35;4.00;;;22.80;99.90;;;;;;5090828;28;20040;-67
2021/08/13 10:59:11;;;;;;;11.48;3.70;;;22.60;99.90;;;;;;5095210;28;20173;-67
2021/08/13 11:02:17;;;;;;;11.88;4.05;;;22.60;99.90;;;;;;5094895;28;20106;-67
2021/08/13 11:04:45;;;;;;;5.55;3.55;;;22.60;99.90;;;;;;5094515;28;20043;-67
2021/08/13 11:07:11;;;;;;;7.05;3.60;;;22.60;99.90;;;;;;5094159;28;20040;-67
2021/08/13 11:09:39;;;;;;;10.63;4.13;;;22.60;99.90;;;;;;5094993;28;20155;-67
2021/08/13 11:12:14;;;;;;;8.15;4.43;;;22.60;99.90;;;;;;5097250;28;20394;-67
2021/08/13 11:14:54;;;;;;;6.72;3.58;;;22.60;99.90;;;;;;5095824;28;20117;-67
2021/08/13 11:17:32;;;;;;;8.65;4.25;;;22.50;99.90;;;;;;5096089;28;20067;-67
2021/08/13 11:20:00;;;;;;;11.40;4.20;;;22.40;99.90;;;;;;5095259;28;20497;-67
2021/08/13 11:22:31;;;;;;;17.10;4.05;;;22.40;99.90;;;;;;5098723;28;20055;-67
2021/08/13 11:24:57;;;;;;;9.40;4.40;;;22.30;99.90;;;;;;5098950;28;20052;-67
2021/08/13 11:27:22;;;;;;;6.10;3.75;;;22.30;99.90;;;;;;5098442;28;20032;-67
2021/08/13 11:29:49;;;;;;;11.00;4.82;;;22.30;99.90;;;;;;5098233;28;20545;-67
2021/08/13 11:32:14;;;;;;;7.70;3.88;;;22.50;99.90;;;;;;5103665;28;20048;-67
2021/08/13 11:34:55;;;;;;;7.13;4.05;;;22.70;99.90;;;;;;5098308;28;20028;-67
2021/08/13 11:37:42;;;;;;;5.05;2.83;;;23.00;99.90;;;;;;5096867;28;20040;-67
2021/08/13 11:40:14;;;;;;;12.10;3.47;;;23.20;99.90;;;;;;5098257;28;20380;-67
2021/08/13 11:42:50;;;;;;;14.90;4.63;;;23.30;99.90;;;;;;5097251;28;20039;-67
2021/08/13 11:45:17;;;;;;;11.73;2.83;;;23.40;99.90;;;;;;5098428;28;20088;-67
2021/08/13 11:47:49;;;;;;;9.88;2.33;;;23.40;97.90;;;;;;5098466;28;20028;-67
2021/08/13 11:50:17;;;;;;;9.55;2.35;;;23.20;98.00;;;;;;5098224;28;20043;-67
2021/08/13 11:52:51;;;;;;;14.15;2.72;;;23.10;98.80;;;;;;5098359;28;20040;-67
2021/08/13 11:55:23;;;;;;;6.30;1.90;;;23.00;98.80;;;;;;5093785;28;20047;-67
2021/08/13 11:57:53;;;;;;;12.63;2.17;;;22.90;97.90;;;;;;5097554;27;20086;-67
2021/08/13 12:00:21;;;;;;;11.90;2.95;;;22.90;98.60;;;;;;5096762;28;20108;-67
2021/08/13 12:02:47;;;;;;;11.40;2.88;;;22.80;98.50;;;;;;5097888;28;20040;-67
2021/08/13 12:05:14;;;;;;;7.93;2.45;;;22.80;99.00;;;;;;5097705;28;20031;-67
2021/08/13 12:07:40;;;;;;;7.05;2.10;;;22.90;98.70;;;;;;5095051;28;20088;-67
2021/08/13 12:10:10;;;;;;;11.57;2.20;;;22.80;98.40;;;;;;5097456;28;20043;-67
2021/08/13 12:12:36;;;;;;;6.32;2.15;;;22.90;99.60;;;;;;5096786;28;20584;-67
2021/08/13 12:15:03;;;;;;;9.18;2.72;;;22.90;99.90;;;;;;5097777;28;20051;-67
2021/08/13 12:17:28;;;;;;;13.85;3.22;;;22.80;99.50;;;;;;5129919;27;20105;-67
2021/08/13 12:20:00;;;;;;;9.77;1.90;;;22.70;98.60;;;;;;5095190;28;20035;-67
2021/08/13 12:22:33;;;;;;;10.23;2.85;;;22.60;97.60;;;;;;5096324;28;20043;-67
2021/08/13 12:24:59;;;;;;;9.35;2.85;;;22.60;99.00;;;;;;5099299;28;20559;-67
2021/08/13 12:27:33;;;;;;;6.18;2.00;;;22.50;99.50;;;;;;5098421;28;20035;-67
2021/08/13 12:29:59;;;;;;;9.57;3.22;;;22.50;99.90;;;;;;5096078;28;20032;-66
2021/08/13 12:32:39;;;;;;;10.80;2.88;;;22.50;99.90;;;;;;5099106;28;20032;-67
2021/08/13 12:35:10;;;;;;;7.85;3.00;;;22.50;99.50;;;;;;5096366;28;20123;-67
2021/08/13 12:37:36;;;;;;;11.43;2.83;;;22.50;99.90;;;;;;5094759;28;20040;-67
2021/08/13 12:40:03;;;;;;;7.82;2.45;;;22.50;99.90;;;;;;5098255;27;20051;-67
2021/08/13 12:42:29;;;;;;;12.77;4.00;;;22.60;99.90;;;;;;5098429;27;20039;-67